sensor_id;sensor_type;location;lat;lon;timestamp;temperature;humidity
19755;DHT22;10036;47.812;9.274;2022-09-16T00:00:29;14.70;99.90
19755;DHT22;10036;47.812;9.274;2022-09-16T00:02:57;14.60;99.90
19755;DHT22;10036;47.812;9.274;2022-09-16T00:05:25;14.60;99.90
19755;DHT22;10036;47.812;9.274;2022-09-16T00:07:52;14.70;99.90
19755;DHT22;10036;47.812;9.274;2022-09-16T00:10:20;14.60;99.90
19755;DHT22;10036;47.812;9.274;2022-09-16T00:12:47;14.70;99.90
19755;DHT22;10036;47.812;9.274;2022-09-16T00:15:14;14.80;99.90
19755;DHT22;10036;47.812;9.274;2022-09-16T00:17:41;14.80;99.90
19755;DHT22;10036;47.812;9.274;2022-09-16T00:20:09;14.80;99.90
19755;DHT22;10036;47.812;9.274;2022-09-16T00:22:37;14.80;99.90
19755;DHT22;10036;47.812;9.274;2022-09-16T00:25:05;14.80;99.90
19755;DHT22;10036;47.812;9.274;2022-09-16T00:27:32;14.80;99.90
19755;DHT22;10036;47.812;9.274;2022-09-16T00:29:59;14.80;99.90
19755;DHT22;10036;47.812;9.274;2022-09-16T00:32:26;14.90;99.90
19755;DHT22;10036;47.812;9.274;2022-09-16T00:34:53;14.90;99.90
19755;DHT22;10036;47.812;9.274;2022-09-16T00:37:20;14.90;99.90
19755;DHT22;10036;47.812;9.274;2022-09-16T00:39:48;14.90;99.90
19755;DHT22;10036;47.812;9.274;2022-09-16T00:42:16;14.80;99.90
19755;DHT22;10036;47.812;9.274;2022-09-16T00:44:57;14.90;99.90
19755;DHT22;10036;47.812;9.274;2022-09-16T00:47:29;14.90;99.90
19755;DHT22;10036;47.812;9.274;2022-09-16T00:50:00;14.90;99.90
19755;DHT22;10036;47.812;9.274;2022-09-16T00:52:29;14.80;99.90
19755;DHT22;10036;47.812;9.274;2022-09-16T00:55:01;14.90;99.90
19755;DHT22;10036;47.812;9.274;2022-09-16T00:57:29;14.90;99.90
19755;DHT22;10036;47.812;9.274;2022-09-16T00:59:56;14.90;99.90
19755;DHT22;10036;47.812;9.274;2022-09-16T01:02:24;15.00;99.90
19755;DHT22;10036;47.812;9.274;2022-09-16T01:04:54;14.90;99.90
19755;DHT22;10036;47.812;9.274;2022-09-16T01:07:28;14.90;99.90
19755;DHT22;10036;47.812;9.274;2022-09-16T01:09:55;14.90;99.90
19755;DHT22;10036;47.812;9.274;2022-09-16T01:12:26;14.90;99.90
19755;DHT22;10036;47.812;9.274;2022-09-16T01:14:53;15.00;99.90
19755;DHT22;10036;47.812;9.274;2022-09-16T01:17:44;15.00;99.90
19755;DHT22;10036;47.812;9.274;2022-09-16T01:23:59;15.00;99.90
19755;DHT22;10036;47.812;9.274;2022-09-16T01:30:02;14.90;99.90
19755;DHT22;10036;47.812;9.274;2022-09-16T01:32:38;14.90;99.90
19755;DHT22;10036;47.812;9.274;2022-09-16T01:35:09;14.80;99.90
19755;DHT22;10036;47.812;9.274;2022-09-16T01:37:49;14.80;99.90
19755;DHT22;10036;47.812;9.274;2022-09-16T01:40:25;14.80;99.90
19755;DHT22;10036;47.812;9.274;2022-09-16T01:42:59;14.80;99.90
19755;DHT22;10036;47.812;9.274;2022-09-16T01:45:33;14.80;99.90
19755;DHT22;10036;47.812;9.274;2022-09-16T01:48:09;14.70;99.90
19755;DHT22;10036;47.812;9.274;2022-09-16T01:50:41;14.70;99.90
19755;DHT22;10036;47.812;9.274;2022-09-16T01:53:13;14.70;99.90
19755;DHT22;10036;47.812;9.274;2022-09-16T01:55:47;14.60;99.90
19755;DHT22;10036;47.812;9.274;2022-09-16T01:58:22;14.70;99.90
19755;DHT22;10036;47.812;9.274;2022-09-16T02:00:55;14.70;99.90
19755;DHT22;10036;47.812;9.274;2022-09-16T02:03:28;14.70;99.90
19755;DHT22;10036;47.812;9.274;2022-09-16T02:05:59;14.70;99.90
19755;DHT22;10036;47.812;9.274;2022-09-16T02:08:31;14.80;99.90
19755;DHT22;10036;47.812;9.274;2022-09-16T02:11:01;14.70;99.90
19755;DHT22;10036;47.812;9.274;2022-09-16T02:13:33;14.60;99.90
19755;DHT22;10036;47.812;9.274;2022-09-16T02:16:03;14.60;99.90
19755;DHT22;10036;47.812;9.274;2022-09-16T02:18:34;14.60;99.90
19755;DHT22;10036;47.812;9.274;2022-09-16T02:21:05;14.50;99.90
19755;DHT22;10036;47.812;9.274;2022-09-16T02:23:35;14.60;99.90
19755;DHT22;10036;47.812;9.274;2022-09-16T02:26:05;14.50;99.90
19755;DHT22;10036;47.812;9.274;2022-09-16T02:28:38;14.50;99.90
19755;DHT22;10036;47.812;9.274;2022-09-16T02:31:11;14.60;99.90
19755;DHT22;10036;47.812;9.274;2022-09-16T02:33:44;14.50;99.90
19755;DHT22;10036;47.812;9.274;2022-09-16T02:36:13;14.50;99.90
19755;DHT22;10036;47.812;9.274;2022-09-16T02:38:44;14.60;99.90
19755;DHT22;10036;47.812;9.274;2022-09-16T02:41:11;14.60;99.90
19755;DHT22;10036;47.812;9.274;2022-09-16T02:43:40;14.50;99.90
19755;DHT22;10036;47.812;9.274;2022-09-16T02:46:10;14.60;99.90
19755;DHT22;10036;47.812;9.274;2022-09-16T02:48:55;14.60;99.90
19755;DHT22;10036;47.812;9.274;2022-09-16T02:51:30;14.60;99.90
19755;DHT22;10036;47.812;9.274;2022-09-16T02:54:03;14.60;99.90
19755;DHT22;10036;47.812;9.274;2022-09-16T02:56:34;14.60;99.90
19755;DHT22;10036;47.812;9.274;2022-09-16T02:59:02;14.60;99.90
19755;DHT22;10036;47.812;9.274;2022-09-16T03:01:31;14.60;99.90
19755;DHT22;10036;47.812;9.274;2022-09-16T03:04:00;14.70;99.90
19755;DHT22;10036;47.812;9.274;2022-09-16T03:06:27;14.80;99.90
19755;DHT22;10036;47.812;9.274;2022-09-16T03:08:59;14.80;99.90
19755;DHT22;10036;47.812;9.274;2022-09-16T03:14:36;14.50;99.90
19755;DHT22;10036;47.812;9.274;2022-09-16T03:17:14;14.50;99.90
19755;DHT22;10036;47.812;9.274;2022-09-16T03:19:54;14.50;99.90
19755;DHT22;10036;47.812;9.274;2022-09-16T03:22:30;14.50;99.90
19755;DHT22;10036;47.812;9.274;2022-09-16T03:25:09;14.50;99.90
19755;DHT22;10036;47.812;9.274;2022-09-16T03:27:41;14.50;99.90
19755;DHT22;10036;47.812;9.274;2022-09-16T03:30:11;14.60;99.90
19755;DHT22;10036;47.812;9.274;2022-09-16T03:32:43;14.60;99.90
19755;DHT22;10036;47.812;9.274;2022-09-16T03:35:18;14.60;99.90
19755;DHT22;10036;47.812;9.274;2022-09-16T03:37:48;14.60;99.90
19755;DHT22;10036;47.812;9.274;2022-09-16T03:40:17;14.70;99.90
19755;DHT22;10036;47.812;9.274;2022-09-16T03:42:45;14.80;99.90
19755;DHT22;10036;47.812;9.274;2022-09-16T03:45:14;14.90;99.90
19755;DHT22;10036;47.812;9.274;2022-09-16T03:47:42;14.90;99.90
19755;DHT22;10036;47.812;9.274;2022-09-16T03:50:09;14.90;99.90
19755;DHT22;10036;47.812;9.274;2022-09-16T03:52:37;14.90;99.90
19755;DHT22;10036;47.812;9.274;2022-09-16T03:55:05;14.90;99.90
19755;DHT22;10036;47.812;9.274;2022-09-16T03:57:32;14.80;99.90
19755;DHT22;10036;47.812;9.274;2022-09-16T03:59:59;14.80;99.90
19755;DHT22;10036;47.812;9.274;2022-09-16T04:02:26;14.70;99.90
19755;DHT22;10036;47.812;9.274;2022-09-16T04:04:53;14.70;99.90
19755;DHT22;10036;47.812;9.274;2022-09-16T04:07:20;14.60;99.90
19755;DHT22;10036;47.812;9.274;2022-09-16T04:09:48;14.60;99.90
19755;DHT22;10036;47.812;9.274;2022-09-16T04:12:15;14.60;99.90
19755;DHT22;10036;47.812;9.274;2022-09-16T04:14:42;14.60;99.90
19755;DHT22;10036;47.812;9.274;2022-09-16T04:17:09;14.60;99.90
19755;DHT22;10036;47.812;9.274;2022-09-16T04:19:35;14.50;99.90
19755;DHT22;10036;47.812;9.274;2022-09-16T04:22:02;14.40;99.90
19755;DHT22;10036;47.812;9.274;2022-09-16T04:24:29;14.40;99.90
19755;DHT22;10036;47.812;9.274;2022-09-16T04:26:58;14.50;99.90
19755;DHT22;10036;47.812;9.274;2022-09-16T04:29:25;14.40;99.90
19755;DHT22;10036;47.812;9.274;2022-09-16T04:31:53;14.50;99.90
19755;DHT22;10036;47.812;9.274;2022-09-16T04:34:19;14.50;99.90
19755;DHT22;10036;47.812;9.274;2022-09-16T04:36:46;14.60;99.90
19755;DHT22;10036;47.812;9.274;2022-09-16T04:39:13;14.60;99.90
19755;DHT22;10036;47.812;9.274;2022-09-16T04:41:40;14.60;99.90
19755;DHT22;10036;47.812;9.274;2022-09-16T04:44:10;14.50;99.90
19755;DHT22;10036;47.812;9.274;2022-09-16T04:46:36;14.50;99.90
19755;DHT22;10036;47.812;9.274;2022-09-16T04:49:03;14.40;99.90
19755;DHT22;10036;47.812;9.274;2022-09-16T04:51:31;14.50;99.90
19755;DHT22;10036;47.812;9.274;2022-09-16T04:53:58;14.50;99.90
19755;DHT22;10036;47.812;9.274;2022-09-16T04:56:27;14.50;99.90
19755;DHT22;10036;47.812;9.274;2022-09-16T04:58:58;14.50;99.90
19755;DHT22;10036;47.812;9.274;2022-09-16T05:01:28;14.50;99.90
19755;DHT22;10036;47.812;9.274;2022-09-16T05:03:57;14.50;99.90
19755;DHT22;10036;47.812;9.274;2022-09-16T05:06:25;14.50;99.90
19755;DHT22;10036;47.812;9.274;2022-09-16T05:08:54;14.50;99.90
19755;DHT22;10036;47.812;9.274;2022-09-16T05:11:22;14.50;99.90
19755;DHT22;10036;47.812;9.274;2022-09-16T05:13:50;14.50;99.90
19755;DHT22;10036;47.812;9.274;2022-09-16T05:16:19;14.50;99.90
19755;DHT22;10036;47.812;9.274;2022-09-16T05:18:49;14.60;99.90
19755;DHT22;10036;47.812;9.274;2022-09-16T05:21:18;14.70;99.90
19755;DHT22;10036;47.812;9.274;2022-09-16T05:23:46;14.60;99.90
19755;DHT22;10036;47.812;9.274;2022-09-16T05:26:14;14.60;99.90
19755;DHT22;10036;47.812;9.274;2022-09-16T05:28:42;14.50;99.90
19755;DHT22;10036;47.812;9.274;2022-09-16T05:31:10;14.50;99.90
19755;DHT22;10036;47.812;9.274;2022-09-16T05:33:37;14.50;99.90
19755;DHT22;10036;47.812;9.274;2022-09-16T05:36:08;14.60;99.90
19755;DHT22;10036;47.812;9.274;2022-09-16T05:38:35;14.50;99.90
19755;DHT22;10036;47.812;9.274;2022-09-16T05:41:03;14.60;99.90
19755;DHT22;10036;47.812;9.274;2022-09-16T05:43:30;14.60;99.90
19755;DHT22;10036;47.812;9.274;2022-09-16T05:45:58;14.70;99.90
19755;DHT22;10036;47.812;9.274;2022-09-16T05:48:26;14.60;99.90
19755;DHT22;10036;47.812;9.274;2022-09-16T05:50:54;14.60;99.90
19755;DHT22;10036;47.812;9.274;2022-09-16T05:53:23;14.60;99.90
19755;DHT22;10036;47.812;9.274;2022-09-16T05:55:54;14.60;99.90
19755;DHT22;10036;47.812;9.274;2022-09-16T05:58:22;14.60;99.90
19755;DHT22;10036;47.812;9.274;2022-09-16T06:00:49;14.70;99.90
19755;DHT22;10036;47.812;9.274;2022-09-16T06:03:16;14.80;99.90
19755;DHT22;10036;47.812;9.274;2022-09-16T06:05:43;14.80;99.90
19755;DHT22;10036;47.812;9.274;2022-09-16T06:08:10;14.70;99.90
19755;DHT22;10036;47.812;9.274;2022-09-16T06:10:39;14.70;99.90
19755;DHT22;10036;47.812;9.274;2022-09-16T06:13:06;14.70;99.90
19755;DHT22;10036;47.812;9.274;2022-09-16T06:15:32;14.70;99.90
19755;DHT22;10036;47.812;9.274;2022-09-16T06:18:00;14.70;99.90
19755;DHT22;10036;47.812;9.274;2022-09-16T06:20:27;14.80;99.90
19755;DHT22;10036;47.812;9.274;2022-09-16T06:22:54;14.80;99.90
19755;DHT22;10036;47.812;9.274;2022-09-16T06:25:21;14.80;99.90
19755;DHT22;10036;47.812;9.274;2022-09-16T06:27:49;14.70;99.90
19755;DHT22;10036;47.812;9.274;2022-09-16T06:30:16;14.80;99.90
19755;DHT22;10036;47.812;9.274;2022-09-16T06:32:43;14.80;99.90
19755;DHT22;10036;47.812;9.274;2022-09-16T06:35:10;14.80;99.90
19755;DHT22;10036;47.812;9.274;2022-09-16T06:37:37;14.70;99.90
19755;DHT22;10036;47.812;9.274;2022-09-16T06:40:05;14.70;99.90
19755;DHT22;10036;47.812;9.274;2022-09-16T06:42:32;14.70;99.90
19755;DHT22;10036;47.812;9.274;2022-09-16T06:45:00;14.60;99.90
19755;DHT22;10036;47.812;9.274;2022-09-16T06:47:29;14.60;99.90
19755;DHT22;10036;47.812;9.274;2022-09-16T06:49:57;14.60;99.90
19755;DHT22;10036;47.812;9.274;2022-09-16T06:52:25;14.60;99.90
19755;DHT22;10036;47.812;9.274;2022-09-16T06:54:52;14.50;99.90
19755;DHT22;10036;47.812;9.274;2022-09-16T06:57:19;14.50;99.90
19755;DHT22;10036;47.812;9.274;2022-09-16T06:59:48;14.50;99.90
19755;DHT22;10036;47.812;9.274;2022-09-16T07:02:16;14.40;99.90
19755;DHT22;10036;47.812;9.274;2022-09-16T07:04:43;14.50;99.90
19755;DHT22;10036;47.812;9.274;2022-09-16T07:07:10;14.40;99.90
19755;DHT22;10036;47.812;9.274;2022-09-16T07:09:37;14.40;99.90
19755;DHT22;10036;47.812;9.274;2022-09-16T07:12:04;14.30;99.90
19755;DHT22;10036;47.812;9.274;2022-09-16T07:14:31;14.30;99.90
19755;DHT22;10036;47.812;9.274;2022-09-16T07:16:59;14.30;99.90
19755;DHT22;10036;47.812;9.274;2022-09-16T07:19:27;14.30;99.90
19755;DHT22;10036;47.812;9.274;2022-09-16T07:21:54;14.30;99.90
19755;DHT22;10036;47.812;9.274;2022-09-16T07:24:21;14.30;99.90
19755;DHT22;10036;47.812;9.274;2022-09-16T07:26:48;14.30;99.90
19755;DHT22;10036;47.812;9.274;2022-09-16T07:29:17;14.40;99.90
19755;DHT22;10036;47.812;9.274;2022-09-16T07:31:45;14.50;99.90
19755;DHT22;10036;47.812;9.274;2022-09-16T07:34:12;14.60;99.90
19755;DHT22;10036;47.812;9.274;2022-09-16T07:36:42;14.60;99.90
19755;DHT22;10036;47.812;9.274;2022-09-16T07:39:10;14.70;99.90
19755;DHT22;10036;47.812;9.274;2022-09-16T07:41:39;14.70;99.90
19755;DHT22;10036;47.812;9.274;2022-09-16T07:44:08;14.80;99.90
19755;DHT22;10036;47.812;9.274;2022-09-16T07:46:36;14.80;99.90
19755;DHT22;10036;47.812;9.274;2022-09-16T07:49:05;14.90;99.90
19755;DHT22;10036;47.812;9.274;2022-09-16T07:51:33;15.00;99.90
19755;DHT22;10036;47.812;9.274;2022-09-16T07:54:03;15.00;99.90
19755;DHT22;10036;47.812;9.274;2022-09-16T07:56:31;14.90;99.90
19755;DHT22;10036;47.812;9.274;2022-09-16T07:58:59;14.90;99.90
19755;DHT22;10036;47.812;9.274;2022-09-16T08:01:27;14.90;99.90
19755;DHT22;10036;47.812;9.274;2022-09-16T08:03:56;14.90;99.90
19755;DHT22;10036;47.812;9.274;2022-09-16T08:06:24;15.00;99.90
19755;DHT22;10036;47.812;9.274;2022-09-16T08:08:53;15.00;99.90
19755;DHT22;10036;47.812;9.274;2022-09-16T08:11:21;14.90;99.90
19755;DHT22;10036;47.812;9.274;2022-09-16T08:13:49;15.00;99.90
19755;DHT22;10036;47.812;9.274;2022-09-16T08:16:17;15.10;99.90
19755;DHT22;10036;47.812;9.274;2022-09-16T08:18:46;15.20;99.90
19755;DHT22;10036;47.812;9.274;2022-09-16T08:21:14;15.20;99.90
19755;DHT22;10036;47.812;9.274;2022-09-16T08:23:42;15.30;99.90
19755;DHT22;10036;47.812;9.274;2022-09-16T08:26:09;15.40;99.90
19755;DHT22;10036;47.812;9.274;2022-09-16T08:28:39;15.60;99.90
19755;DHT22;10036;47.812;9.274;2022-09-16T08:31:07;15.80;99.90
19755;DHT22;10036;47.812;9.274;2022-09-16T08:33:34;15.90;99.90
19755;DHT22;10036;47.812;9.274;2022-09-16T08:36:03;15.90;99.90
19755;DHT22;10036;47.812;9.274;2022-09-16T08:38:31;16.00;99.90
19755;DHT22;10036;47.812;9.274;2022-09-16T08:41:04;16.10;99.90
19755;DHT22;10036;47.812;9.274;2022-09-16T08:43:35;16.00;99.90
19755;DHT22;10036;47.812;9.274;2022-09-16T08:46:11;16.00;99.90
19755;DHT22;10036;47.812;9.274;2022-09-16T08:48:47;16.10;99.90
19755;DHT22;10036;47.812;9.274;2022-09-16T08:51:19;15.90;99.90
19755;DHT22;10036;47.812;9.274;2022-09-16T08:53:50;15.90;99.90
19755;DHT22;10036;47.812;9.274;2022-09-16T08:56:21;16.10;99.90
19755;DHT22;10036;47.812;9.274;2022-09-16T08:58:52;16.10;99.90
19755;DHT22;10036;47.812;9.274;2022-09-16T09:01:26;16.10;99.90
19755;DHT22;10036;47.812;9.274;2022-09-16T09:03:54;16.10;99.90
19755;DHT22;10036;47.812;9.274;2022-09-16T09:06:35;16.10;99.90
19755;DHT22;10036;47.812;9.274;2022-09-16T09:09:26;16.00;99.90
19755;DHT22;10036;47.812;9.274;2022-09-16T09:12:01;16.00;99.90
19755;DHT22;10036;47.812;9.274;2022-09-16T09:14:37;16.00;99.90
19755;DHT22;10036;47.812;9.274;2022-09-16T09:17:14;16.00;99.90
19755;DHT22;10036;47.812;9.274;2022-09-16T09:19:55;16.10;99.90
19755;DHT22;10036;47.812;9.274;2022-09-16T09:22:53;16.20;99.90
19755;DHT22;10036;47.812;9.274;2022-09-16T09:25:31;16.30;99.90
19755;DHT22;10036;47.812;9.274;2022-09-16T09:28:12;16.30;99.90
19755;DHT22;10036;47.812;9.274;2022-09-16T09:30:47;16.30;99.90
19755;DHT22;10036;47.812;9.274;2022-09-16T09:33:24;16.20;99.90
19755;DHT22;10036;47.812;9.274;2022-09-16T09:36:17;16.20;99.90
19755;DHT22;10036;47.812;9.274;2022-09-16T09:41:50;16.30;99.90
19755;DHT22;10036;47.812;9.274;2022-09-16T09:44:30;16.50;99.90
19755;DHT22;10036;47.812;9.274;2022-09-16T09:47:02;16.60;99.90
19755;DHT22;10036;47.812;9.274;2022-09-16T09:49:34;16.70;99.90
19755;DHT22;10036;47.812;9.274;2022-09-16T09:52:12;16.70;99.90
19755;DHT22;10036;47.812;9.274;2022-09-16T09:54:44;16.70;99.90
19755;DHT22;10036;47.812;9.274;2022-09-16T09:57:18;16.70;99.90
19755;DHT22;10036;47.812;9.274;2022-09-16T09:59:48;16.80;99.90
19755;DHT22;10036;47.812;9.274;2022-09-16T10:02:19;16.90;99.90
19755;DHT22;10036;47.812;9.274;2022-09-16T10:04:48;17.00;99.90
19755;DHT22;10036;47.812;9.274;2022-09-16T10:07:18;17.10;99.90
19755;DHT22;10036;47.812;9.274;2022-09-16T10:09:48;17.10;99.90
19755;DHT22;10036;47.812;9.274;2022-09-16T10:12:26;17.30;99.90
19755;DHT22;10036;47.812;9.274;2022-09-16T10:14:53;17.40;99.90
19755;DHT22;10036;47.812;9.274;2022-09-16T10:17:20;17.20;99.90
19755;DHT22;10036;47.812;9.274;2022-09-16T10:19:57;16.50;99.90
19755;DHT22;10036;47.812;9.274;2022-09-16T10:22:27;16.00;99.90
19755;DHT22;10036;47.812;9.274;2022-09-16T10:24:56;15.50;99.90
19755;DHT22;10036;47.812;9.274;2022-09-16T10:27:25;15.10;99.90
19755;DHT22;10036;47.812;9.274;2022-09-16T10:30:09;14.80;99.90
19755;DHT22;10036;47.812;9.274;2022-09-16T10:32:44;14.60;99.90
19755;DHT22;10036;47.812;9.274;2022-09-16T10:35:18;14.50;99.90
19755;DHT22;10036;47.812;9.274;2022-09-16T10:37:50;14.40;99.90
19755;DHT22;10036;47.812;9.274;2022-09-16T10:40:18;14.40;99.90
19755;DHT22;10036;47.812;9.274;2022-09-16T10:42:48;14.40;99.90
19755;DHT22;10036;47.812;9.274;2022-09-16T10:45:24;14.40;99.90
19755;DHT22;10036;47.812;9.274;2022-09-16T10:47:54;14.40;99.90
19755;DHT22;10036;47.812;9.274;2022-09-16T10:50:24;14.60;99.90
19755;DHT22;10036;47.812;9.274;2022-09-16T10:52:52;14.70;99.90
19755;DHT22;10036;47.812;9.274;2022-09-16T10:55:25;14.80;99.90
19755;DHT22;10036;47.812;9.274;2022-09-16T10:57:53;15.00;99.90
19755;DHT22;10036;47.812;9.274;2022-09-16T11:00:22;15.10;99.90
19755;DHT22;10036;47.812;9.274;2022-09-16T11:03:17;15.20;99.90
19755;DHT22;10036;47.812;9.274;2022-09-16T11:06:14;15.20;99.90
19755;DHT22;10036;47.812;9.274;2022-09-16T11:08:54;15.20;99.90
19755;DHT22;10036;47.812;9.274;2022-09-16T11:11:32;15.30;99.90
19755;DHT22;10036;47.812;9.274;2022-09-16T11:14:09;15.30;99.90
19755;DHT22;10036;47.812;9.274;2022-09-16T11:16:55;15.20;99.90
19755;DHT22;10036;47.812;9.274;2022-09-16T11:19:32;15.10;99.90
19755;DHT22;10036;47.812;9.274;2022-09-16T11:22:14;15.10;99.90
19755;DHT22;10036;47.812;9.274;2022-09-16T11:27:55;15.20;99.90
19755;DHT22;10036;47.812;9.274;2022-09-16T11:30:24;15.40;99.90
19755;DHT22;10036;47.812;9.274;2022-09-16T11:33:14;15.30;99.90
19755;DHT22;10036;47.812;9.274;2022-09-16T11:39:06;15.30;99.90
19755;DHT22;10036;47.812;9.274;2022-09-16T11:41:40;15.20;99.90
19755;DHT22;10036;47.812;9.274;2022-09-16T11:44:26;15.20;99.90
19755;DHT22;10036;47.812;9.274;2022-09-16T11:47:07;15.20;99.90
19755;DHT22;10036;47.812;9.274;2022-09-16T11:49:53;15.20;99.90
19755;DHT22;10036;47.812;9.274;2022-09-16T11:52:33;15.10;99.90
19755;DHT22;10036;47.812;9.274;2022-09-16T11:55:19;15.10;99.90
19755;DHT22;10036;47.812;9.274;2022-09-16T11:57:52;15.00;99.90
19755;DHT22;10036;47.812;9.274;2022-09-16T12:00:21;15.00;99.90
19755;DHT22;10036;47.812;9.274;2022-09-16T12:02:54;15.00;99.90
19755;DHT22;10036;47.812;9.274;2022-09-16T12:05:26;14.90;99.90
19755;DHT22;10036;47.812;9.274;2022-09-16T12:08:02;14.80;99.90
19755;DHT22;10036;47.812;9.274;2022-09-16T12:10:36;14.80;99.90
19755;DHT22;10036;47.812;9.274;2022-09-16T12:13:10;14.70;99.90
19755;DHT22;10036;47.812;9.274;2022-09-16T12:15:43;14.80;99.90
19755;DHT22;10036;47.812;9.274;2022-09-16T12:18:15;14.80;99.90
19755;DHT22;10036;47.812;9.274;2022-09-16T12:20:46;14.70;99.90
19755;DHT22;10036;47.812;9.274;2022-09-16T12:23:17;14.70;99.90
19755;DHT22;10036;47.812;9.274;2022-09-16T12:25:51;14.80;99.90
19755;DHT22;10036;47.812;9.274;2022-09-16T12:28:25;14.80;99.90
19755;DHT22;10036;47.812;9.274;2022-09-16T12:31:02;14.90;99.90
19755;DHT22;10036;47.812;9.274;2022-09-16T12:33:35;14.80;99.90
19755;DHT22;10036;47.812;9.274;2022-09-16T12:36:06;14.80;99.90
19755;DHT22;10036;47.812;9.274;2022-09-16T12:38:34;14.80;99.90
19755;DHT22;10036;47.812;9.274;2022-09-16T12:41:19;14.90;99.90
19755;DHT22;10036;47.812;9.274;2022-09-16T12:44:02;14.90;99.90
19755;DHT22;10036;47.812;9.274;2022-09-16T12:46:53;14.90;99.90
19755;DHT22;10036;47.812;9.274;2022-09-16T12:53:03;14.80;99.90
19755;DHT22;10036;47.812;9.274;2022-09-16T12:55:44;14.80;99.90
19755;DHT22;10036;47.812;9.274;2022-09-16T12:58:43;14.70;99.90
19755;DHT22;10036;47.812;9.274;2022-09-16T13:01:19;14.70;99.90
19755;DHT22;10036;47.812;9.274;2022-09-16T13:03:51;14.80;99.90
19755;DHT22;10036;47.812;9.274;2022-09-16T13:06:22;14.80;99.90
19755;DHT22;10036;47.812;9.274;2022-09-16T13:08:50;14.90;99.90
19755;DHT22;10036;47.812;9.274;2022-09-16T13:11:20;14.90;99.90
19755;DHT22;10036;47.812;9.274;2022-09-16T13:13:51;14.90;99.90
19755;DHT22;10036;47.812;9.274;2022-09-16T13:16:30;14.90;99.90
19755;DHT22;10036;47.812;9.274;2022-09-16T13:19:26;15.00;99.90
19755;DHT22;10036;47.812;9.274;2022-09-16T13:21:57;14.90;99.90
19755;DHT22;10036;47.812;9.274;2022-09-16T13:24:39;15.00;99.90
19755;DHT22;10036;47.812;9.274;2022-09-16T13:27:26;15.00;99.90
19755;DHT22;10036;47.812;9.274;2022-09-16T13:30:12;15.00;99.90
19755;DHT22;10036;47.812;9.274;2022-09-16T13:32:42;15.00;99.90
19755;DHT22;10036;47.812;9.274;2022-09-16T13:35:36;15.00;99.90
19755;DHT22;10036;47.812;9.274;2022-09-16T13:38:21;15.00;99.90
19755;DHT22;10036;47.812;9.274;2022-09-16T13:40:56;15.00;99.90
19755;DHT22;10036;47.812;9.274;2022-09-16T13:43:31;15.10;99.90
19755;DHT22;10036;47.812;9.274;2022-09-16T13:46:06;15.30;99.90
19755;DHT22;10036;47.812;9.274;2022-09-16T13:48:38;15.40;99.90
19755;DHT22;10036;47.812;9.274;2022-09-16T13:51:11;15.50;99.90
19755;DHT22;10036;47.812;9.274;2022-09-16T13:53:44;15.70;99.90
19755;DHT22;10036;47.812;9.274;2022-09-16T13:56:28;15.90;99.90
19755;DHT22;10036;47.812;9.274;2022-09-16T13:59:04;16.10;99.90
19755;DHT22;10036;47.812;9.274;2022-09-16T14:01:37;16.50;99.90
19755;DHT22;10036;47.812;9.274;2022-09-16T14:04:10;16.60;99.90
19755;DHT22;10036;47.812;9.274;2022-09-16T14:06:49;16.40;99.90
19755;DHT22;10036;47.812;9.274;2022-09-16T14:09:27;16.20;99.90
19755;DHT22;10036;47.812;9.274;2022-09-16T14:12:03;16.10;99.90
19755;DHT22;10036;47.812;9.274;2022-09-16T14:14:35;16.00;99.90
19755;DHT22;10036;47.812;9.274;2022-09-16T14:17:12;15.80;99.90
19755;DHT22;10036;47.812;9.274;2022-09-16T14:19:41;15.80;99.90
19755;DHT22;10036;47.812;9.274;2022-09-16T14:22:14;15.70;99.90
19755;DHT22;10036;47.812;9.274;2022-09-16T14:24:42;15.60;99.90
19755;DHT22;10036;47.812;9.274;2022-09-16T14:27:19;15.50;99.90
19755;DHT22;10036;47.812;9.274;2022-09-16T14:29:56;15.30;99.90
19755;DHT22;10036;47.812;9.274;2022-09-16T14:32:27;15.20;99.90
19755;DHT22;10036;47.812;9.274;2022-09-16T14:34:55;15.20;99.90
19755;DHT22;10036;47.812;9.274;2022-09-16T14:37:24;15.10;99.90
19755;DHT22;10036;47.812;9.274;2022-09-16T14:39:53;15.00;99.90
19755;DHT22;10036;47.812;9.274;2022-09-16T14:42:22;14.90;99.90
19755;DHT22;10036;47.812;9.274;2022-09-16T14:44:52;14.80;99.90
19755;DHT22;10036;47.812;9.274;2022-09-16T14:47:26;14.70;99.90
19755;DHT22;10036;47.812;9.274;2022-09-16T14:49:56;14.60;99.90
19755;DHT22;10036;47.812;9.274;2022-09-16T14:52:30;14.60;99.90
19755;DHT22;10036;47.812;9.274;2022-09-16T14:54:58;14.60;99.90
19755;DHT22;10036;47.812;9.274;2022-09-16T14:57:26;14.60;99.90
19755;DHT22;10036;47.812;9.274;2022-09-16T14:59:57;14.70;99.90
19755;DHT22;10036;47.812;9.274;2022-09-16T15:02:29;14.80;99.90
19755;DHT22;10036;47.812;9.274;2022-09-16T15:05:00;14.90;99.90
19755;DHT22;10036;47.812;9.274;2022-09-16T15:07:32;15.00;99.90
19755;DHT22;10036;47.812;9.274;2022-09-16T15:10:00;15.00;99.90
19755;DHT22;10036;47.812;9.274;2022-09-16T15:12:34;14.90;99.90
19755;DHT22;10036;47.812;9.274;2022-09-16T15:15:04;14.90;99.90
19755;DHT22;10036;47.812;9.274;2022-09-16T15:17:34;14.90;99.90
19755;DHT22;10036;47.812;9.274;2022-09-16T15:20:01;14.90;99.90
19755;DHT22;10036;47.812;9.274;2022-09-16T15:22:28;15.00;99.90
19755;DHT22;10036;47.812;9.274;2022-09-16T15:24:57;14.90;99.90
19755;DHT22;10036;47.812;9.274;2022-09-16T15:27:26;14.90;99.90
19755;DHT22;10036;47.812;9.274;2022-09-16T15:29:56;14.80;99.90
19755;DHT22;10036;47.812;9.274;2022-09-16T15:32:26;14.70;99.90
19755;DHT22;10036;47.812;9.274;2022-09-16T15:35:15;14.70;99.90
19755;DHT22;10036;47.812;9.274;2022-09-16T15:37:44;14.60;99.90
19755;DHT22;10036;47.812;9.274;2022-09-16T15:40:28;14.60;99.90
19755;DHT22;10036;47.812;9.274;2022-09-16T15:43:11;14.60;99.90
19755;DHT22;10036;47.812;9.274;2022-09-16T15:45:41;14.50;99.90
19755;DHT22;10036;47.812;9.274;2022-09-16T15:48:14;14.50;99.90
19755;DHT22;10036;47.812;9.274;2022-09-16T15:50:45;14.50;99.90
19755;DHT22;10036;47.812;9.274;2022-09-16T15:53:17;14.50;99.90
19755;DHT22;10036;47.812;9.274;2022-09-16T15:55:54;14.50;99.90
19755;DHT22;10036;47.812;9.274;2022-09-16T15:58:32;14.50;99.90
19755;DHT22;10036;47.812;9.274;2022-09-16T16:01:06;14.50;99.90
19755;DHT22;10036;47.812;9.274;2022-09-16T16:03:44;14.40;99.90
19755;DHT22;10036;47.812;9.274;2022-09-16T16:06:13;14.40;99.90
19755;DHT22;10036;47.812;9.274;2022-09-16T16:08:43;14.40;99.90
19755;DHT22;10036;47.812;9.274;2022-09-16T16:11:13;14.40;99.90
19755;DHT22;10036;47.812;9.274;2022-09-16T16:13:40;14.30;99.90
19755;DHT22;10036;47.812;9.274;2022-09-16T16:16:09;14.30;99.90
19755;DHT22;10036;47.812;9.274;2022-09-16T16:18:37;14.30;99.90
19755;DHT22;10036;47.812;9.274;2022-09-16T16:21:05;14.40;99.90